Time;durP1;ratioP1;P1;durP2;ratioP2;P2;SDS_P1;SDS_P2;PMS_P1;PMS_P2;Temp;Humidity;BMP_temperature;BMP_pressure;BME280_temperature;BME280_humidity;BME280_pressure;Samples;Min_cycle;Max_cycle;Signal;HPM_P1;HPM_P2
2023/03/16 00:02:04;;;;;;;3.53;2.80;;;8.90;99.90;;;;;;5054501;28;20040;-37
2023/03/16 00:04:30;;;;;;;5.15;3.17;;;8.90;99.90;;;;;;5054551;28;20043;-35
2023/03/16 00:06:56;;;;;;;6.00;3.28;;;8.90;99.90;;;;;;5054300;28;20029;-38
2023/03/16 00:09:29;;;;;;;4.30;2.95;;;8.90;99.90;;;;;;5054392;28;20025;-37
2023/03/16 00:11:56;;;;;;;5.10;2.80;;;8.90;99.90;;;;;;5054707;28;20467;-38
2023/03/16 00:14:22;;;;;;;5.32;3.13;;;8.90;99.90;;;;;;5054392;28;20017;-37
2023/03/16 00:16:47;;;;;;;4.72;2.75;;;8.90;99.90;;;;;;5054237;28;20028;-38
2023/03/16 00:19:13;;;;;;;4.38;2.60;;;8.90;99.90;;;;;;5054284;28;20094;-36
2023/03/16 00:21:39;;;;;;;5.07;2.75;;;8.90;99.90;;;;;;5054227;28;20048;-37
2023/03/16 00:24:05;;;;;;;5.40;2.83;;;8.90;99.90;;;;;;5054091;28;20021;-36
2023/03/16 00:26:30;;;;;;;6.50;3.25;;;8.90;99.90;;;;;;5054155;28;20021;-37
2023/03/16 00:28:56;;;;;;;7.50;3.38;;;8.90;99.90;;;;;;5054032;28;20367;-35
2023/03/16 00:31:23;;;;;;;3.97;2.85;;;8.90;99.90;;;;;;5054107;28;20498;-38
2023/03/16 00:33:50;;;;;;;6.38;3.28;;;8.90;99.90;;;;;;5053932;28;20506;-37
2023/03/16 00:36:16;;;;;;;5.65;2.80;;;8.80;99.90;;;;;;5053755;28;20518;-38
2023/03/16 00:38:45;;;;;;;5.07;3.20;;;8.80;99.90;;;;;;5053899;28;20037;-38
2023/03/16 00:41:14;;;;;;;5.47;2.63;;;8.80;99.90;;;;;;5053904;28;20414;-37
2023/03/16 00:43:41;;;;;;;4.70;2.85;;;8.80;99.90;;;;;;5053871;28;20032;-37
2023/03/16 00:46:08;;;;;;;4.97;3.00;;;8.80;99.90;;;;;;5053650;28;20025;-37
2023/03/16 00:48:36;;;;;;;4.13;3.00;;;8.80;99.90;;;;;;5053598;28;20025;-37
2023/03/16 00:51:05;;;;;;;4.65;2.63;;;8.80;99.90;;;;;;5053694;28;20025;-39
2023/03/16 00:53:32;;;;;;;4.10;2.60;;;8.80;99.90;;;;;;5053677;28;20024;-38
2023/03/16 00:56:01;;;;;;;4.78;2.72;;;8.80;99.90;;;;;;5053603;28;20021;-38
2023/03/16 00:58:27;;;;;;;5.45;2.95;;;8.70;99.90;;;;;;5051473;28;20025;-37
2023/03/16 01:00:54;;;;;;;3.55;2.50;;;8.80;99.90;;;;;;5053492;28;20033;-38
2023/03/16 01:03:19;;;;;;;4.78;2.80;;;8.80;99.90;;;;;;5053396;28;20053;-37
2023/03/16 01:05:45;;;;;;;5.57;3.20;;;8.80;99.90;;;;;;5053291;28;20075;-37
2023/03/16 01:08:11;;;;;;;6.55;2.97;;;8.80;99.90;;;;;;5053448;28;20025;-39
2023/03/16 01:10:36;;;;;;;5.55;2.70;;;8.80;99.90;;;;;;5053792;28;20052;-38
2023/03/16 01:13:02;;;;;;;4.68;2.60;;;8.80;99.90;;;;;;5053353;28;20028;-37
2023/03/16 01:15:29;;;;;;;5.13;2.78;;;8.70;99.90;;;;;;5053235;28;20025;-36
2023/03/16 01:17:55;;;;;;;5.25;3.03;;;8.70;99.90;;;;;;5052989;28;20104;-38
2023/03/16 01:20:22;;;;;;;6.40;2.65;;;8.70;99.90;;;;;;5053155;28;20143;-38
2023/03/16 01:22:47;;;;;;;5.28;2.80;;;8.70;99.90;;;;;;5053161;28;20029;-38
2023/03/16 01:25:13;;;;;;;4.20;2.53;;;8.70;99.90;;;;;;5053120;28;20032;-38
2023/03/16 01:27:39;;;;;;;5.78;2.90;;;8.70;99.90;;;;;;5052735;28;20029;-38
2023/03/16 01:30:05;;;;;;;5.82;3.05;;;8.70;99.90;;;;;;5053038;28;20068;-35
2023/03/16 01:32:32;;;;;;;5.13;2.60;;;8.70;99.90;;;;;;5052732;28;20054;-37
2023/03/16 01:34:58;;;;;;;4.30;2.65;;;8.70;99.90;;;;;;5052851;28;20490;-38
2023/03/16 01:37:24;;;;;;;3.97;2.65;;;8.70;99.90;;;;;;5052654;28;20032;-37
2023/03/16 01:39:49;;;;;;;5.18;2.88;;;8.70;99.90;;;;;;5052804;28;20036;-38
2023/03/16 01:42:15;;;;;;;4.32;2.83;;;8.70;99.90;;;;;;5052642;28;20037;-36
2023/03/16 01:44:53;;;;;;;4.88;2.90;;;8.70;99.90;;;;;;5052735;28;20025;-36
2023/03/16 01:47:21;;;;;;;4.75;2.78;;;8.70;99.90;;;;;;5052236;28;20025;-36
2023/03/16 01:49:47;;;;;;;5.68;3.40;;;8.70;99.90;;;;;;5052567;28;20505;-38
2023/03/16 01:52:20;;;;;;;6.57;3.22;;;8.70;99.90;;;;;;5052559;28;20025;-38
2023/03/16 01:54:57;;;;;;;4.28;2.90;;;8.60;99.90;;;;;;5052573;28;20151;-36
2023/03/16 01:57:31;;;;;;;4.88;3.17;;;8.70;99.90;;;;;;5052338;28;20514;-38
2023/03/16 01:59:58;;;;;;;6.63;3.53;;;8.60;99.90;;;;;;5052349;28;20394;-38
2023/03/16 02:02:28;;;;;;;4.57;3.00;;;8.60;99.90;;;;;;5052334;28;20267;-38
2023/03/16 02:05:21;;;;;;;5.00;2.60;;;8.60;99.90;;;;;;5052397;28;20490;-37
2023/03/16 02:07:49;;;;;;;4.35;2.78;;;8.70;99.90;;;;;;5053228;28;20031;-38
2023/03/16 02:10:18;;;;;;;5.68;2.65;;;8.60;99.90;;;;;;5053479;28;20124;-38
2023/03/16 02:12:44;;;;;;;5.57;2.92;;;8.60;99.90;;;;;;5054069;28;20017;-38
2023/03/16 02:15:12;;;;;;;3.67;2.60;;;8.60;99.90;;;;;;5051169;28;20029;-39
2023/03/16 02:17:41;;;;;;;5.18;2.92;;;8.60;99.90;;;;;;5051911;28;20131;-38
2023/03/16 02:20:33;;;;;;;7.13;3.97;;;8.60;99.90;;;;;;5052051;28;20032;-38
2023/03/16 02:22:59;;;;;;;6.30;4.03;;;8.60;99.90;;;;;;5051953;28;20519;-36
2023/03/16 02:25:38;;;;;;;5.65;3.47;;;8.60;99.90;;;;;;5050932;28;20037;-36
2023/03/16 02:28:03;;;;;;;6.15;3.50;;;8.60;99.90;;;;;;5051684;28;20025;-38
2023/03/16 02:30:29;;;;;;;5.28;2.95;;;8.60;99.90;;;;;;5051821;28;20032;-37
2023/03/16 02:32:55;;;;;;;5.13;3.13;;;8.60;99.90;;;;;;5050408;28;20021;-36
2023/03/16 02:35:21;;;;;;;5.13;2.70;;;8.60;99.90;;;;;;5050369;28;20703;-38
2023/03/16 02:37:47;;;;;;;5.97;3.05;;;8.60;99.90;;;;;;5051626;28;20035;-37
2023/03/16 02:40:19;;;;;;;6.10;2.97;;;8.60;99.90;;;;;;5051780;28;20025;-38
2023/03/16 02:42:46;;;;;;;5.00;3.08;;;8.60;99.90;;;;;;5051627;28;20079;-38
2023/03/16 02:45:12;;;;;;;5.60;2.92;;;8.60;99.90;;;;;;5051548;28;20368;-36
2023/03/16 02:47:43;;;;;;;4.32;2.80;;;8.60;99.90;;;;;;5051138;28;20116;-37
2023/03/16 02:50:11;;;;;;;4.53;2.92;;;8.60;99.90;;;;;;5051557;28;20021;-38
2023/03/16 02:52:38;;;;;;;4.72;2.95;;;8.60;99.90;;;;;;5053822;28;20064;-38
2023/03/16 02:55:06;;;;;;;4.50;3.00;;;8.60;99.90;;;;;;5051920;28;20017;-37
2023/03/16 02:57:32;;;;;;;4.85;3.17;;;8.50;99.90;;;;;;5051162;28;20445;-36
2023/03/16 02:59:58;;;;;;;4.55;2.90;;;8.50;99.90;;;;;;5051209;28;20061;-36
2023/03/16 03:02:24;;;;;;;4.15;2.70;;;8.50;99.90;;;;;;5051406;28;20545;-38
2023/03/16 03:04:53;;;;;;;6.28;3.40;;;8.50;99.90;;;;;;5051361;28;20035;-38
2023/03/16 03:07:19;;;;;;;6.50;3.35;;;8.50;99.90;;;;;;5050990;28;20440;-37
2023/03/16 03:09:45;;;;;;;4.70;2.92;;;8.50;99.90;;;;;;5051269;28;20487;-38
2023/03/16 03:12:11;;;;;;;6.10;2.92;;;8.50;99.90;;;;;;5051193;28;20036;-37
2023/03/16 03:14:38;;;;;;;4.65;2.78;;;8.50;99.90;;;;;;5051104;28;20021;-38
2023/03/16 03:17:07;;;;;;;5.22;2.70;;;8.50;99.90;;;;;;5051029;28;20025;-36
2023/03/16 03:19:34;;;;;;;7.07;2.80;;;8.50;99.90;;;;;;5051496;28;20021;-37
2023/03/16 03:22:03;;;;;;;5.40;3.00;;;8.50;99.90;;;;;;5050697;28;20025;-38
2023/03/16 03:24:30;;;;;;;5.97;2.97;;;8.50;99.90;;;;;;5051163;28;20029;-37
2023/03/16 03:26:56;;;;;;;4.70;2.90;;;8.50;99.90;;;;;;5050780;28;20414;-38
2023/03/16 03:29:21;;;;;;;5.35;3.00;;;8.40;99.90;;;;;;5050959;28;20024;-37
2023/03/16 03:31:47;;;;;;;4.75;3.10;;;8.50;99.90;;;;;;5051404;28;20025;-36
2023/03/16 03:34:13;;;;;;;9.60;4.30;;;8.50;99.90;;;;;;5051037;28;20025;-38
2023/03/16 03:36:38;;;;;;;8.35;3.83;;;8.50;99.90;;;;;;5050832;28;20024;-37
2023/03/16 03:39:04;;;;;;;5.70;3.20;;;8.50;99.90;;;;;;5051018;28;20530;-37
2023/03/16 03:41:31;;;;;;;5.32;3.10;;;8.50;99.90;;;;;;5050978;28;20032;-37
2023/03/16 03:43:58;;;;;;;7.65;3.58;;;8.50;99.90;;;;;;5051252;28;20029;-38
2023/03/16 03:46:24;;;;;;;6.55;3.25;;;8.50;99.90;;;;;;5050696;28;20437;-37
2023/03/16 03:48:50;;;;;;;8.57;3.45;;;8.50;99.90;;;;;;5050871;28;20059;-36
2023/03/16 03:51:16;;;;;;;6.00;3.05;;;8.50;99.90;;;;;;5050881;28;20479;-38
2023/03/16 03:53:41;;;;;;;6.00;3.47;;;8.40;99.90;;;;;;5050801;28;20017;-38
2023/03/16 03:56:07;;;;;;;5.60;3.35;;;8.40;99.90;;;;;;5050595;28;20452;-38
2023/03/16 03:58:33;;;;;;;5.07;3.35;;;8.50;99.90;;;;;;5050641;28;20029;-37
2023/03/16 04:00:58;;;;;;;6.95;3.60;;;8.40;99.90;;;;;;5050657;28;20043;-38
2023/03/16 04:03:24;;;;;;;6.43;3.25;;;8.40;99.90;;;;;;5050662;28;20025;-38
2023/03/16 04:05:49;;;;;;;5.47;3.00;;;8.40;99.90;;;;;;5049292;28;20087;-38
2023/03/16 04:08:15;;;;;;;5.70;3.08;;;8.40;99.90;;;;;;5050573;28;20299;-38
2023/03/16 04:10:41;;;;;;;6.15;3.38;;;8.40;99.90;;;;;;5050696;28;20021;-37
2023/03/16 04:13:06;;;;;;;6.38;3.15;;;8.50;99.90;;;;;;5050487;28;20033;-37
2023/03/16 04:15:32;;;;;;;6.20;3.22;;;8.40;99.90;;;;;;5050608;28;20029;-37
2023/03/16 04:17:58;;;;;;;6.68;3.60;;;8.40;99.90;;;;;;5050484;28;20065;-39
2023/03/16 04:20:24;;;;;;;7.30;3.70;;;8.40;99.90;;;;;;5050595;28;20029;-38
2023/03/16 04:22:57;;;;;;;8.80;4.07;;;8.40;99.90;;;;;;5050913;28;20098;-37
2023/03/16 04:25:25;;;;;;;8.35;3.83;;;8.40;99.90;;;;;;5050584;28;20036;-37
2023/03/16 04:27:51;;;;;;;6.20;3.70;;;8.40;99.90;;;;;;5050583;28;20056;-38
2023/03/16 04:30:17;;;;;;;8.02;3.53;;;8.40;99.90;;;;;;5050697;28;20482;-38
2023/03/16 04:32:42;;;;;;;10.60;4.50;;;8.40;99.90;;;;;;5050655;28;20033;-37
2023/03/16 04:35:09;;;;;;;7.78;3.97;;;8.40;99.90;;;;;;5054344;28;20040;-37
2023/03/16 04:37:35;;;;;;;6.18;3.53;;;8.40;99.90;;;;;;5053813;28;20025;-38
2023/03/16 04:40:08;;;;;;;8.02;4.40;;;8.40;99.90;;;;;;5053953;28;20510;-39
2023/03/16 04:42:34;;;;;;;7.72;4.20;;;8.40;99.90;;;;;;5053847;28;20383;-36
2023/03/16 04:45:00;;;;;;;6.13;3.85;;;8.40;99.90;;;;;;5053898;28;20025;-37
2023/03/16 04:47:25;;;;;;;6.70;3.65;;;8.30;99.90;;;;;;5053613;28;20474;-38
2023/03/16 04:49:51;;;;;;;7.63;3.78;;;8.30;99.90;;;;;;5054539;28;20028;-38
2023/03/16 04:52:17;;;;;;;9.10;4.03;;;8.30;99.90;;;;;;5053851;28;20090;-38
2023/03/16 04:54:42;;;;;;;8.68;4.55;;;8.40;99.90;;;;;;5053592;28;20055;-38
2023/03/16 04:57:08;;;;;;;7.80;3.95;;;8.40;99.90;;;;;;5053407;28;20431;-39
2023/03/16 04:59:34;;;;;;;8.30;4.40;;;8.30;99.90;;;;;;5053776;28;20394;-38
2023/03/16 05:01:59;;;;;;;8.10;4.13;;;8.40;99.90;;;;;;5053470;28;20486;-38
2023/03/16 05:04:25;;;;;;;8.18;4.55;;;8.40;99.90;;;;;;5053460;28;20075;-38
2023/03/16 05:06:51;;;;;;;6.45;3.72;;;8.30;99.90;;;;;;5052863;28;20360;-39
2023/03/16 05:09:16;;;;;;;7.13;4.43;;;8.30;99.90;;;;;;5053364;28;20043;-39
2023/03/16 05:11:42;;;;;;;8.32;4.53;;;8.30;99.90;;;;;;5053340;28;20017;-38
2023/03/16 05:14:07;;;;;;;10.30;4.40;;;8.30;99.90;;;;;;5053383;28;20108;-37
2023/03/16 05:16:33;;;;;;;7.28;4.40;;;8.30;99.90;;;;;;5053019;28;20017;-36
2023/03/16 05:19:00;;;;;;;7.40;4.22;;;8.30;99.90;;;;;;5053247;28;20040;-38
2023/03/16 05:21:25;;;;;;;7.03;4.20;;;8.30;99.90;;;;;;5053061;28;20524;-35
2023/03/16 05:23:51;;;;;;;8.63;4.30;;;8.30;99.90;;;;;;5053109;28;20036;-38
2023/03/16 05:26:17;;;;;;;6.50;4.10;;;8.40;99.90;;;;;;5052820;28;20111;-38
2023/03/16 05:28:44;;;;;;;7.07;4.40;;;8.30;99.90;;;;;;5052949;28;20021;-38
2023/03/16 05:31:10;;;;;;;7.00;4.35;;;8.30;99.90;;;;;;5053074;28;20021;-36
2023/03/16 05:33:36;;;;;;;7.78;4.72;;;8.30;99.90;;;;;;5052944;28;20079;-40
2023/03/16 05:36:02;;;;;;;8.23;5.00;;;8.30;99.90;;;;;;5051390;28;20079;-37
2023/03/16 05:38:28;;;;;;;8.20;4.30;;;8.30;99.90;;;;;;5052916;28;20433;-38
2023/03/16 05:40:54;;;;;;;8.02;4.47;;;8.30;99.90;;;;;;5052959;28;20475;-36
2023/03/16 05:43:20;;;;;;;8.43;4.65;;;8.30;99.90;;;;;;5052677;28;20036;-38
2023/03/16 05:45:46;;;;;;;6.47;4.60;;;8.30;99.90;;;;;;5052823;28;20064;-38
2023/03/16 05:48:13;;;;;;;6.93;4.32;;;8.30;99.90;;;;;;5052556;28;20121;-38
2023/03/16 05:50:40;;;;;;;7.53;4.85;;;8.30;99.90;;;;;;5052511;28;20095;-37
2023/03/16 05:53:06;;;;;;;8.00;4.85;;;8.30;99.90;;;;;;5052524;28;20044;-38
2023/03/16 05:55:31;;;;;;;8.40;4.85;;;8.20;99.90;;;;;;5052447;28;20459;-40
2023/03/16 05:57:58;;;;;;;7.20;4.20;;;8.20;99.90;;;;;;5052234;28;20041;-36
2023/03/16 06:00:24;;;;;;;9.40;4.20;;;8.20;99.90;;;;;;5052339;28;20028;-37
2023/03/16 06:02:52;;;;;;;7.38;4.40;;;8.20;99.90;;;;;;5054041;28;20112;-38
2023/03/16 06:05:19;;;;;;;7.03;4.30;;;8.20;99.90;;;;;;5052799;28;20043;-37
2023/03/16 06:07:44;;;;;;;8.02;4.35;;;8.20;99.90;;;;;;5052023;28;20411;-38
2023/03/16 06:10:11;;;;;;;7.90;4.70;;;8.20;99.90;;;;;;5052213;28;20017;-38
2023/03/16 06:12:37;;;;;;;7.28;4.65;;;8.20;99.90;;;;;;5052117;28;20036;-38
2023/03/16 06:15:09;;;;;;;8.18;5.13;;;8.20;99.90;;;;;;5052195;28;20511;-37
2023/03/16 06:17:35;;;;;;;10.13;5.50;;;8.20;99.90;;;;;;5051844;28;20017;-38
2023/03/16 06:20:01;;;;;;;8.43;5.30;;;8.20;99.90;;;;;;5052044;28;20044;-38
2023/03/16 06:22:28;;;;;;;7.47;5.10;;;8.20;99.90;;;;;;5051988;28;20070;-38
2023/03/16 06:24:54;;;;;;;8.02;5.05;;;8.20;99.90;;;;;;5052029;28;20061;-38
2023/03/16 06:27:20;;;;;;;7.65;5.05;;;8.20;99.90;;;;;;5051672;28;20060;-36
2023/03/16 06:29:46;;;;;;;7.28;4.75;;;8.20;99.90;;;;;;5051878;28;20020;-38
2023/03/16 06:32:13;;;;;;;9.02;5.15;;;8.20;99.90;;;;;;5051723;28;20025;-36
2023/03/16 06:34:40;;;;;;;8.52;5.18;;;8.20;99.90;;;;;;5051869;28;20029;-38
2023/03/16 06:37:06;;;;;;;7.78;5.10;;;8.10;99.90;;;;;;5051861;28;20429;-38
2023/03/16 06:39:31;;;;;;;7.97;4.90;;;8.20;99.90;;;;;;5051793;28;20025;-38
2023/03/16 06:41:57;;;;;;;8.40;4.80;;;8.10;99.90;;;;;;5051852;28;20108;-38
2023/03/16 06:44:23;;;;;;;6.95;4.97;;;8.10;99.90;;;;;;5051617;28;20078;-35
2023/03/16 06:46:49;;;;;;;6.25;4.70;;;8.20;99.90;;;;;;5051827;28;20430;-36
2023/03/16 06:49:14;;;;;;;8.35;5.57;;;8.20;99.90;;;;;;5051515;28;20072;-36
2023/03/16 06:51:40;;;;;;;8.00;4.75;;;8.20;99.90;;;;;;5051623;28;20032;-36
2023/03/16 06:54:06;;;;;;;7.10;4.93;;;8.20;99.90;;;;;;5051520;28;20036;-34
2023/03/16 06:56:33;;;;;;;6.90;4.97;;;8.20;99.90;;;;;;5050614;28;20017;-35
2023/03/16 06:58:58;;;;;;;6.75;4.45;;;8.30;99.90;;;;;;5051470;28;20043;-34
2023/03/16 07:01:24;;;;;;;7.60;4.80;;;8.20;99.90;;;;;;5051166;28;20119;-34
2023/03/16 07:03:50;;;;;;;7.03;4.65;;;8.30;99.90;;;;;;5051587;28;20025;-34
2023/03/16 07:06:16;;;;;;;6.63;4.30;;;8.30;99.90;;;;;;5051279;28;20037;-36
2023/03/16 07:08:42;;;;;;;6.18;4.38;;;8.30;99.90;;;;;;5051219;28;20036;-34
2023/03/16 07:11:08;;;;;;;6.38;4.22;;;8.20;99.90;;;;;;5051282;28;20021;-36
2023/03/16 07:13:34;;;;;;;6.40;4.78;;;8.30;99.90;;;;;;5051165;28;20104;-35
2023/03/16 07:16:00;;;;;;;7.90;4.10;;;8.30;99.90;;;;;;5051103;28;20112;-38
2023/03/16 07:18:26;;;;;;;7.05;4.72;;;8.30;99.90;;;;;;5051952;28;20036;-36
2023/03/16 07:20:53;;;;;;;5.43;3.70;;;8.30;99.90;;;;;;5051178;28;20059;-35
2023/03/16 07:23:19;;;;;;;6.97;3.85;;;8.30;99.90;;;;;;5051080;28;20390;-34
2023/03/16 07:25:45;;;;;;;6.50;4.22;;;8.40;99.90;;;;;;5050961;28;20032;-34
2023/03/16 07:28:11;;;;;;;5.95;3.88;;;8.40;99.90;;;;;;5052063;28;20029;-34
2023/03/16 07:30:37;;;;;;;5.20;3.63;;;8.40;99.90;;;;;;5051196;28;20028;-36
2023/03/16 07:33:04;;;;;;;5.38;3.53;;;8.40;99.90;;;;;;5052030;28;20025;-37
2023/03/16 07:35:30;;;;;;;6.15;4.05;;;8.40;99.90;;;;;;5051250;28;20075;-37
2023/03/16 07:37:56;;;;;;;7.70;4.30;;;8.40;99.90;;;;;;5050864;28;20518;-38
2023/03/16 07:40:22;;;;;;;4.65;3.85;;;8.40;99.90;;;;;;5050936;28;20028;-38
2023/03/16 07:42:48;;;;;;;7.38;4.03;;;8.50;99.90;;;;;;5050881;28;20075;-38
2023/03/16 07:45:14;;;;;;;6.55;3.67;;;8.50;99.90;;;;;;5051377;28;20535;-35
2023/03/16 07:47:40;;;;;;;5.43;3.67;;;8.40;99.90;;;;;;5050903;28;20025;-35
2023/03/16 07:50:07;;;;;;;5.72;3.58;;;8.50;99.90;;;;;;5052144;28;20529;-34
2023/03/16 07:52:33;;;;;;;6.97;4.53;;;8.40;99.90;;;;;;5052246;28;20039;-36
2023/03/16 07:54:59;;;;;;;8.55;5.85;;;8.50;99.90;;;;;;5051392;28;20025;-34
2023/03/16 07:57:25;;;;;;;7.75;5.85;;;8.20;99.90;;;;;;5051220;28;20025;-35
2023/03/16 07:59:50;;;;;;;8.23;6.28;;;8.20;99.90;;;;;;5050811;28;20503;-36
2023/03/16 08:02:18;;;;;;;8.20;5.78;;;8.20;99.90;;;;;;5050652;28;20071;-38
2023/03/16 08:04:45;;;;;;;8.32;5.60;;;8.20;99.90;;;;;;5050787;28;20029;-34
2023/03/16 08:07:12;;;;;;;8.90;5.43;;;8.30;99.90;;;;;;5051870;28;20033;-34
2023/03/16 08:09:37;;;;;;;6.78;5.43;;;8.30;99.90;;;;;;5054897;28;20025;-34
2023/03/16 08:12:05;;;;;;;8.45;4.70;;;8.30;99.90;;;;;;5054360;28;20116;-34
2023/03/16 08:14:33;;;;;;;7.07;5.25;;;8.30;99.90;;;;;;5054440;28;20116;-34
2023/03/16 08:17:00;;;;;;;5.22;4.60;;;8.30;99.90;;;;;;5055285;28;20444;-35
2023/03/16 08:19:26;;;;;;;6.22;4.72;;;8.40;99.90;;;;;;5055381;28;20089;-39
2023/03/16 08:21:52;;;;;;;5.75;4.40;;;8.40;99.90;;;;;;5055031;28;20043;-34
2023/03/16 08:24:18;;;;;;;6.95;4.63;;;8.40;99.90;;;;;;5054244;28;20530;-34
2023/03/16 08:26:44;;;;;;;6.20;4.30;;;8.50;99.90;;;;;;5053956;28;20028;-37
2023/03/16 08:29:10;;;;;;;5.28;3.80;;;8.50;99.90;;;;;;5054190;28;20040;-34
2023/03/16 08:31:35;;;;;;;5.43;4.00;;;8.50;99.90;;;;;;5054707;28;20052;-36
2023/03/16 08:34:02;;;;;;;6.53;3.97;;;8.50;99.90;;;;;;5053995;28;20499;-37
2023/03/16 08:36:29;;;;;;;5.72;3.85;;;8.60;99.90;;;;;;5054964;28;20021;-35
2023/03/16 08:38:55;;;;;;;6.35;4.15;;;8.60;99.90;;;;;;5055727;28;20036;-34
2023/03/16 08:41:20;;;;;;;6.80;4.05;;;8.60;99.90;;;;;;5053862;28;20025;-36
2023/03/16 08:43:46;;;;;;;5.38;4.10;;;8.60;99.90;;;;;;5053909;28;20151;-36
2023/03/16 08:46:12;;;;;;;5.38;3.47;;;8.60;99.90;;;;;;5053762;28;20025;-36
2023/03/16 08:48:40;;;;;;;5.57;3.53;;;8.70;99.90;;;;;;5053853;28;20368;-36
2023/03/16 08:51:08;;;;;;;4.82;3.10;;;8.70;99.90;;;;;;5052613;28;20028;-36
2023/03/16 08:53:35;;;;;;;5.82;3.38;;;8.70;99.90;;;;;;5053669;28;20496;-35
2023/03/16 08:56:09;;;;;;;4.43;3.35;;;8.70;99.90;;;;;;5054102;28;20032;-38
2023/03/16 08:58:35;;;;;;;5.35;3.30;;;8.70;99.90;;;;;;5054307;28;20056;-34
2023/03/16 09:01:04;;;;;;;4.57;3.17;;;8.70;99.90;;;;;;5054222;28;20033;-34
2023/03/16 09:03:31;;;;;;;4.30;2.90;;;8.70;99.90;;;;;;5054180;28;20025;-35
2023/03/16 09:06:03;;;;;;;4.15;3.10;;;8.70;99.90;;;;;;5054548;28;20028;-37
2023/03/16 09:08:29;;;;;;;4.10;3.00;;;8.80;99.90;;;;;;5054596;28;20095;-34
2023/03/16 09:11:02;;;;;;;3.97;3.22;;;8.90;99.90;;;;;;5053631;28;20025;-34
2023/03/16 09:13:29;;;;;;;3.20;2.83;;;8.80;99.90;;;;;;5053658;28;20392;-36
2023/03/16 09:15:55;;;;;;;4.40;2.90;;;8.90;99.90;;;;;;5053302;28;20049;-34
2023/03/16 09:18:22;;;;;;;4.10;2.45;;;8.90;99.90;;;;;;5053473;28;20391;-34
2023/03/16 09:20:48;;;;;;;4.07;2.63;;;8.90;99.90;;;;;;5052740;28;20027;-36
2023/03/16 09:23:14;;;;;;;3.95;2.60;;;8.90;99.90;;;;;;5053045;28;20032;-34
2023/03/16 09:25:40;;;;;;;3.40;2.40;;;8.90;99.90;;;;;;5053069;28;20399;-36
2023/03/16 09:28:06;;;;;;;4.45;2.70;;;9.00;99.90;;;;;;5052812;28;20032;-38
2023/03/16 09:30:32;;;;;;;2.90;2.17;;;9.00;99.90;;;;;;5054376;28;20021;-38
2023/03/16 09:32:58;;;;;;;3.35;2.15;;;9.00;99.90;;;;;;5053948;28;20384;-35
2023/03/16 09:35:25;;;;;;;3.53;2.38;;;9.00;99.90;;;;;;5053495;28;20052;-34
2023/03/16 09:37:51;;;;;;;3.60;2.30;;;9.10;99.90;;;;;;5053830;28;20036;-36
2023/03/16 09:40:25;;;;;;;3.45;2.17;;;9.10;99.90;;;;;;5052923;28;20025;-39
2023/03/16 09:43:20;;;;;;;3.85;2.30;;;9.10;99.90;;;;;;5052821;28;20048;-34
2023/03/16 09:46:04;;;;;;;4.72;2.20;;;9.10;99.90;;;;;;5052725;28;20025;-36
2023/03/16 09:48:32;;;;;;;2.97;2.17;;;9.10;99.90;;;;;;5052990;28;20036;-35
2023/03/16 09:51:01;;;;;;;2.85;2.00;;;9.10;99.90;;;;;;5052666;28;20025;-34
2023/03/16 09:53:30;;;;;;;2.88;1.98;;;9.10;99.90;;;;;;5054005;28;20029;-39
2023/03/16 09:56:23;;;;;;;2.67;1.92;;;9.20;99.90;;;;;;5052853;28;20013;-36
2023/03/16 09:58:49;;;;;;;2.92;2.17;;;9.20;99.90;;;;;;5050237;28;20033;-38
2023/03/16 10:01:21;;;;;;;3.05;2.10;;;9.20;99.90;;;;;;5053011;28;20037;-34
2023/03/16 10:04:19;;;;;;;7.47;2.33;;;9.20;99.90;;;;;;5052377;28;20055;-34
2023/03/16 10:07:03;;;;;;;4.03;2.20;;;9.30;99.90;;;;;;5052456;28;20545;-34
2023/03/16 10:09:33;;;;;;;4.07;2.20;;;9.30;99.90;;;;;;5052342;28;20025;-36
2023/03/16 10:12:02;;;;;;;4.93;2.25;;;9.30;99.90;;;;;;5052250;28;20271;-36
2023/03/16 10:14:54;;;;;;;4.55;2.25;;;9.30;99.90;;;;;;5052297;28;20032;-34
2023/03/16 10:17:23;;;;;;;2.88;1.85;;;9.30;99.90;;;;;;5051876;28;20028;-34
2023/03/16 10:20:07;;;;;;;3.92;1.85;;;9.30;99.90;;;;;;5052532;28;20498;-34
2023/03/16 10:22:38;;;;;;;;;;;9.30;99.90;;;;;;5052477;28;20064;-37
2023/03/16 10:25:18;;;;;;;3.33;2.00;;;9.30;99.90;;;;;;5052086;28;19905;-35
2023/03/16 10:27:45;;;;;;;2.83;1.70;;;9.40;99.90;;;;;;5051607;28;20029;-36
2023/03/16 10:30:31;;;;;;;5.10;1.83;;;9.40;99.90;;;;;;5051527;28;20029;-35
2023/03/16 10:33:04;;;;;;;3.03;1.75;;;9.40;99.90;;;;;;5052638;28;20028;-36
2023/03/16 10:35:57;;;;;;;4.03;1.95;;;9.40;99.90;;;;;;5053364;28;20436;-35
2023/03/16 10:38:45;;;;;;;5.03;1.55;;;9.40;99.90;;;;;;5053073;28;20033;-34
2023/03/16 10:41:17;;;;;;;3.92;1.77;;;9.40;99.90;;;;;;5051815;28;20048;-34
2023/03/16 10:43:48;;;;;;;4.13;1.50;;;9.40;99.90;;;;;;5052480;28;20063;-35
2023/03/16 10:46:14;;;;;;;2.83;1.50;;;9.50;99.90;;;;;;5051782;28;20029;-36
2023/03/16 10:48:40;;;;;;;2.63;1.60;;;9.50;99.90;;;;;;5050641;28;20029;-39
2023/03/16 10:51:11;;;;;;;2.53;1.20;;;9.50;99.90;;;;;;5050236;28;20078;-34
2023/03/16 10:53:41;;;;;;;2.10;1.38;;;9.50;99.90;;;;;;5051872;28;20052;-34
2023/03/16 10:56:24;;;;;;;1.80;1.27;;;9.50;99.90;;;;;;5051572;28;20029;-36
2023/03/16 10:58:50;;;;;;;3.60;1.75;;;9.50;99.90;;;;;;5052485;28;20191;-34
2023/03/16 11:01:34;;;;;;;3.53;1.40;;;9.60;99.90;;;;;;5052168;28;20044;-34
2023/03/16 11:04:01;;;;;;;5.03;1.88;;;9.60;99.90;;;;;;5051453;28;20025;-34
2023/03/16 11:06:29;;;;;;;4.32;1.60;;;9.60;99.90;;;;;;5050962;28;20057;-35
2023/03/16 11:09:10;;;;;;;3.03;1.30;;;9.60;99.90;;;;;;5051596;28;20033;-34
2023/03/16 11:11:36;;;;;;;6.88;1.50;;;9.60;99.90;;;;;;5051371;28;20016;-34
2023/03/16 11:14:09;;;;;;;5.15;1.40;;;9.60;99.90;;;;;;5051185;28;20384;-34
2023/03/16 11:17:11;;;;;;;3.35;1.25;;;9.60;99.90;;;;;;5051095;28;20078;-35
2023/03/16 11:19:53;;;;;;;4.43;1.05;;;9.60;99.90;;;;;;5047666;28;20557;-34
2023/03/16 11:22:28;;;;;;;3.80;1.35;;;9.60;99.90;;;;;;5051117;28;20025;-38
2023/03/16 11:25:08;;;;;;;3.70;1.25;;;9.70;99.90;;;;;;5051259;28;20083;-34
2023/03/16 11:27:52;;;;;;;2.08;0.93;;;9.70;99.90;;;;;;5051300;28;20025;-37
2023/03/16 11:30:23;;;;;;;;;;;9.70;99.90;;;;;;5051610;28;20028;-34
2023/03/16 11:32:52;;;;;;;1.60;0.80;;;9.70;99.90;;;;;;5051110;28;19936;-34
2023/03/16 11:35:43;;;;;;;1.60;0.98;;;9.70;99.90;;;;;;5051013;28;20032;-34
2023/03/16 11:38:30;;;;;;;2.50;0.98;;;9.80;99.90;;;;;;5050882;28;20432;-34
2023/03/16 11:41:02;;;;;;;1.77;0.80;;;9.80;99.90;;;;;;5051207;28;20033;-35
2023/03/16 11:43:49;;;;;;;1.95;0.77;;;9.80;99.90;;;;;;5053831;28;20025;-36
2023/03/16 11:46:21;;;;;;;2.00;0.75;;;9.80;99.90;;;;;;5054698;28;20032;-34
2023/03/16 11:49:19;;;;;;;1.60;0.80;;;9.80;99.90;;;;;;5054965;28;20043;-34
2023/03/16 11:51:47;;;;;;;2.65;0.90;;;9.80;99.90;;;;;;5055358;28;20035;-35
2023/03/16 11:54:35;;;;;;;1.75;0.80;;;9.80;99.90;;;;;;5054913;28;20032;-35
2023/03/16 11:57:13;;;;;;;2.72;0.75;;;9.80;99.90;;;;;;5054756;28;20021;-35
2023/03/16 11:59:57;;;;;;;1.27;0.65;;;9.90;99.90;;;;;;5054872;28;20029;-40
2023/03/16 12:02:52;;;;;;;1.33;0.80;;;9.90;99.90;;;;;;5054770;28;20090;-35
2023/03/16 12:05:33;;;;;;;1.83;0.90;;;9.90;99.90;;;;;;5054657;28;20135;-34
2023/03/16 12:08:43;;;;;;;1.58;0.70;;;9.90;99.90;;;;;;5054410;28;20028;-34
2023/03/16 12:11:28;;;;;;;2.22;0.90;;;9.90;99.90;;;;;;5044400;28;20124;-36
2023/03/16 12:14:09;;;;;;;2.00;0.98;;;9.90;99.90;;;;;;5054456;28;20025;-34
2023/03/16 12:16:56;;;;;;;1.75;0.90;;;10.00;99.90;;;;;;5054352;28;20023;-38
2023/03/16 12:19:42;;;;;;;1.75;0.80;;;10.00;99.90;;;;;;5054476;28;20052;-37
2023/03/16 12:22:25;;;;;;;2.78;0.75;;;10.00;99.90;;;;;;5050879;28;20041;-35
2023/03/16 12:24:52;;;;;;;3.15;0.80;;;10.00;99.90;;;;;;5054404;28;20552;-34
2023/03/16 12:27:26;;;;;;;1.00;0.63;;;10.00;99.90;;;;;;5053989;28;20120;-34
2023/03/16 12:30:35;;;;;;;1.38;0.80;;;10.00;99.90;;;;;;5054286;28;20020;-36
2023/03/16 12:33:12;;;;;;;2.60;0.77;;;10.00;99.90;;;;;;5048297;28;20025;-34
2023/03/16 12:35:38;;;;;;;1.42;0.73;;;10.00;99.90;;;;;;5054097;28;20028;-38
2023/03/16 12:38:28;;;;;;;2.53;0.95;;;10.10;99.90;;;;;;5054001;28;20037;-34
2023/03/16 12:41:05;;;;;;;1.80;0.75;;;10.00;99.90;;;;;;5054065;28;20040;-34
2023/03/16 12:43:52;;;;;;;2.17;1.00;;;10.00;99.90;;;;;;5054724;28;20051;-34
2023/03/16 12:46:25;;;;;;;1.50;0.80;;;10.00;99.90;;;;;;5054299;28;20024;-35
2023/03/16 12:48:56;;;;;;;1.40;0.60;;;10.00;99.90;;;;;;5053740;28;20554;-38
2023/03/16 12:51:35;;;;;;;1.25;0.70;;;10.00;99.90;;;;;;5053866;28;20471;-34
2023/03/16 12:54:01;;;;;;;2.30;0.65;;;10.10;99.90;;;;;;5052654;28;20070;-38
2023/03/16 12:56:32;;;;;;;1.35;0.70;;;10.10;99.90;;;;;;5053498;28;20041;-35
2023/03/16 12:59:01;;;;;;;1.13;0.68;;;10.00;99.90;;;;;;5053715;28;20382;-34
2023/03/16 13:01:37;;;;;;;1.98;0.68;;;10.10;99.90;;;;;;5053383;28;20406;-34
2023/03/16 13:04:16;;;;;;;1.30;0.70;;;10.10;99.90;;;;;;5053526;28;20032;-35
2023/03/16 13:07:10;;;;;;;1.17;0.75;;;10.10;99.90;;;;;;5051715;28;20054;-35
2023/03/16 13:09:43;;;;;;;0.98;0.52;;;10.10;99.90;;;;;;5053489;28;20025;-34
2023/03/16 13:12:25;;;;;;;1.15;0.70;;;10.10;99.90;;;;;;5053538;28;20090;-38